Time;durP1;ratioP1;P1;durP2;ratioP2;P2;SDS_P1;SDS_P2;PMS_P1;PMS_P2;Temp;Humidity;BMP_temperature;BMP_pressure;BME280_temperature;BME280_humidity;BME280_pressure;Samples;Min_cycle;Max_cycle;Signal;HPM_P1;HPM_P2
2023/03/21 00:01:04;;;;;;;38.10;21.27;;;9.40;99.90;;;;;;5028337;28;20053;-68
2023/03/21 00:03:32;;;;;;;40.03;21.90;;;9.40;99.90;;;;;;5026952;28;20356;-68
2023/03/21 00:06:03;;;;;;;41.65;23.35;;;9.40;99.90;;;;;;5028115;28;20553;-68
2023/03/21 00:08:29;;;;;;;39.25;24.30;;;9.50;99.90;;;;;;5028108;28;20460;-68
2023/03/21 00:11:03;;;;;;;37.33;22.73;;;9.40;99.90;;;;;;5028332;28;20053;-68
2023/03/21 00:13:33;;;;;;;37.75;22.40;;;9.40;99.90;;;;;;5028144;28;20420;-68
2023/03/21 00:16:18;;;;;;;39.67;21.88;;;9.50;99.90;;;;;;5026921;28;20146;-67
2023/03/21 00:18:46;;;;;;;40.80;21.52;;;9.50;99.90;;;;;;5027957;28;20037;-68
2023/03/21 00:21:17;;;;;;;39.90;22.95;;;9.50;99.90;;;;;;5027866;28;20083;-68
2023/03/21 00:23:45;;;;;;;39.97;22.27;;;9.50;99.90;;;;;;5026670;28;20049;-68
2023/03/21 00:26:11;;;;;;;39.80;22.02;;;9.50;99.90;;;;;;5028068;28;20094;-69
2023/03/21 00:28:38;;;;;;;37.20;21.98;;;9.50;99.90;;;;;;5026535;28;20068;-68
2023/03/21 00:31:05;;;;;;;37.17;21.45;;;9.50;99.90;;;;;;5027675;28;20046;-68
2023/03/21 00:33:31;;;;;;;36.75;22.70;;;9.50;99.90;;;;;;5026357;28;20509;-68
2023/03/21 00:35:57;;;;;;;38.47;22.10;;;9.50;99.90;;;;;;5028005;28;20041;-69
2023/03/21 00:38:23;;;;;;;37.83;21.55;;;9.50;99.90;;;;;;5026474;28;20057;-68
2023/03/21 00:40:49;;;;;;;36.83;20.35;;;9.50;99.90;;;;;;5026723;28;20096;-69
2023/03/21 00:43:16;;;;;;;34.75;20.38;;;9.60;99.90;;;;;;5026242;28;20588;-68
2023/03/21 00:45:45;;;;;;;36.55;20.85;;;9.60;99.90;;;;;;5026865;28;20045;-68
2023/03/21 00:48:11;;;;;;;36.70;21.58;;;9.50;99.90;;;;;;5026863;28;20072;-68
2023/03/21 00:50:38;;;;;;;36.40;20.63;;;9.50;99.90;;;;;;5028261;28;20041;-68
2023/03/21 00:53:05;;;;;;;34.35;19.80;;;9.60;99.90;;;;;;5026353;28;20049;-68
2023/03/21 00:55:31;;;;;;;35.67;20.05;;;9.60;99.90;;;;;;5028381;28;20049;-68
2023/03/21 00:57:57;;;;;;;35.20;19.52;;;9.60;99.90;;;;;;5028046;28;20045;-68
2023/03/21 01:00:23;;;;;;;35.47;20.33;;;9.60;99.90;;;;;;5026453;28;20128;-68
2023/03/21 01:02:55;;;;;;;33.60;18.05;;;9.60;99.90;;;;;;5027283;28;20037;-68
2023/03/21 01:08:13;;;;;;;32.10;18.88;;;9.60;99.90;;;;;;5028067;28;20057;-68
2023/03/21 01:10:44;;;;;;;33.60;18.80;;;9.60;99.90;;;;;;5028031;28;20454;-68
2023/03/21 01:13:12;;;;;;;30.07;17.37;;;9.60;99.90;;;;;;5027555;28;20131;-69
2023/03/21 01:15:43;;;;;;;32.40;18.05;;;9.60;99.90;;;;;;5028081;28;20037;-68
2023/03/21 01:18:09;;;;;;;31.55;17.38;;;9.70;99.90;;;;;;5028008;28;20465;-68
2023/03/21 01:20:35;;;;;;;33.17;17.15;;;9.70;99.90;;;;;;5028845;28;20144;-68
2023/03/21 01:23:01;;;;;;;31.23;17.13;;;9.70;99.90;;;;;;5030952;28;20038;-68
2023/03/21 01:25:26;;;;;;;29.38;17.00;;;9.70;99.90;;;;;;5031569;28;20041;-68
2023/03/21 01:27:53;;;;;;;31.05;17.25;;;9.70;99.90;;;;;;5029672;28;20045;-68
2023/03/21 01:30:19;;;;;;;28.80;15.70;;;9.70;99.90;;;;;;5029610;28;20501;-68
2023/03/21 01:32:45;;;;;;;29.83;16.67;;;9.60;99.90;;;;;;5030960;28;20055;-68
2023/03/21 01:35:11;;;;;;;32.40;17.77;;;9.70;99.90;;;;;;5030797;28;20464;-68
2023/03/21 01:37:36;;;;;;;26.45;16.38;;;9.70;99.90;;;;;;5029301;28;20518;-69
2023/03/21 01:40:03;;;;;;;25.77;16.77;;;9.70;99.90;;;;;;5030600;28;20120;-68
2023/03/21 01:42:30;;;;;;;29.98;16.90;;;9.70;99.90;;;;;;5029084;28;20092;-68
2023/03/21 01:45:02;;;;;;;29.38;16.35;;;9.70;99.90;;;;;;5030791;28;20038;-68
2023/03/21 01:47:27;;;;;;;27.50;16.00;;;9.70;99.90;;;;;;5030826;28;20063;-68
2023/03/21 01:50:00;;;;;;;24.95;14.18;;;9.80;99.90;;;;;;5030488;28;20037;-68
2023/03/21 01:52:31;;;;;;;27.92;15.95;;;9.70;99.90;;;;;;5028815;28;20049;-68
2023/03/21 01:54:59;;;;;;;23.55;14.75;;;9.70;99.90;;;;;;5030720;28;20049;-68
2023/03/21 01:57:32;;;;;;;28.15;16.02;;;9.70;99.90;;;;;;5028908;28;20088;-68
2023/03/21 02:00:10;;;;;;;25.85;14.30;;;9.70;99.90;;;;;;5029239;28;20041;-68
2023/03/21 02:02:37;;;;;;;28.25;15.02;;;9.70;99.90;;;;;;5028487;28;20049;-67
2023/03/21 02:05:03;;;;;;;29.17;15.20;;;9.80;99.90;;;;;;5030464;28;20080;-68
2023/03/21 02:07:34;;;;;;;28.42;15.48;;;9.70;99.90;;;;;;5030177;28;20477;-68
2023/03/21 02:10:06;;;;;;;28.58;16.83;;;9.70;99.90;;;;;;5030490;28;20050;-70
2023/03/21 02:12:32;;;;;;;28.13;16.17;;;9.80;99.90;;;;;;5029868;28;20092;-68
2023/03/21 02:14:58;;;;;;;25.85;15.18;;;9.80;99.90;;;;;;5028711;28;20080;-67
2023/03/21 02:17:46;;;;;;;29.63;16.52;;;9.70;99.90;;;;;;5030102;28;20080;-67
2023/03/21 02:20:49;;;;;;;33.28;16.75;;;9.70;99.90;;;;;;5030061;28;20038;-67
2023/03/21 02:23:34;;;;;;;30.05;15.88;;;9.70;99.90;;;;;;5029657;28;20167;-68
2023/03/21 02:26:05;;;;;;;27.15;15.80;;;9.70;99.90;;;;;;5029769;28;20067;-67
2023/03/21 02:28:34;;;;;;;27.10;15.45;;;9.70;99.90;;;;;;5028819;28;20068;-68
2023/03/21 02:31:27;;;;;;;29.65;15.15;;;9.70;99.90;;;;;;5028649;28;20572;-67
2023/03/21 02:33:58;;;;;;;26.67;15.52;;;9.70;99.90;;;;;;5028376;28;20053;-68
2023/03/21 02:36:51;;;;;;;29.75;15.85;;;9.70;99.90;;;;;;5028196;28;20128;-67
2023/03/21 02:39:40;;;;;;;28.95;15.32;;;9.70;99.90;;;;;;5028222;28;20088;-67
2023/03/21 02:42:28;;;;;;;24.45;14.30;;;9.70;99.90;;;;;;5029244;28;20092;-67
2023/03/21 02:45:07;;;;;;;25.63;15.00;;;9.70;99.90;;;;;;5029351;28;20037;-67
2023/03/21 02:47:46;;;;;;;28.00;14.52;;;9.70;99.90;;;;;;5029722;28;20045;-68
2023/03/21 02:50:24;;;;;;;25.42;14.77;;;9.70;99.90;;;;;;5029657;28;20037;-68
2023/03/21 02:52:52;;;;;;;23.90;13.68;;;9.70;99.90;;;;;;5028957;28;20106;-68
2023/03/21 02:55:23;;;;;;;20.35;12.70;;;9.60;99.90;;;;;;5027950;28;20056;-68
2023/03/21 02:57:51;;;;;;;23.55;14.13;;;9.70;99.90;;;;;;5029308;28;20167;-67
2023/03/21 03:00:21;;;;;;;23.33;13.80;;;9.70;99.90;;;;;;5027904;28;20124;-68
2023/03/21 03:02:51;;;;;;;25.65;13.45;;;9.70;99.90;;;;;;5027555;28;20052;-68
2023/03/21 03:05:22;;;;;;;21.23;12.68;;;9.70;99.90;;;;;;5029393;28;20131;-68
2023/03/21 03:07:55;;;;;;;22.88;13.50;;;9.70;99.90;;;;;;5028053;28;20579;-68
2023/03/21 03:10:30;;;;;;;22.10;12.43;;;9.70;99.90;;;;;;5028868;28;20393;-69
2023/03/21 03:13:20;;;;;;;21.17;13.15;;;9.70;99.90;;;;;;5029217;28;20410;-68
2023/03/21 03:15:52;;;;;;;19.55;12.45;;;9.60;99.90;;;;;;5029281;28;20052;-68
2023/03/21 03:18:32;;;;;;;20.90;12.48;;;9.70;99.90;;;;;;5028920;28;20120;-68
2023/03/21 03:21:25;;;;;;;22.35;13.10;;;9.60;99.90;;;;;;5027331;28;20144;-68
2023/03/21 03:23:56;;;;;;;26.60;14.85;;;9.70;99.90;;;;;;5028776;28;20077;-68
2023/03/21 03:26:37;;;;;;;19.67;11.85;;;9.70;99.90;;;;;;5027684;28;20095;-67
2023/03/21 03:29:08;;;;;;;20.70;12.60;;;9.70;99.90;;;;;;5029251;28;20048;-67
2023/03/21 03:31:43;;;;;;;20.50;12.90;;;9.70;99.90;;;;;;5027515;28;20045;-67
2023/03/21 03:34:13;;;;;;;22.05;13.23;;;9.60;99.90;;;;;;5028839;28;20041;-68
2023/03/21 03:36:41;;;;;;;21.23;12.80;;;9.70;99.90;;;;;;5028801;28;20045;-67
2023/03/21 03:39:10;;;;;;;22.45;13.25;;;9.70;99.90;;;;;;5028534;28;20151;-68
2023/03/21 03:41:50;;;;;;;19.90;13.00;;;9.60;99.90;;;;;;5028198;28;20033;-67
2023/03/21 03:44:16;;;;;;;22.35;13.52;;;9.60;99.90;;;;;;5028196;28;20045;-67
2023/03/21 03:46:51;;;;;;;20.27;12.57;;;9.60;99.90;;;;;;5026767;28;20049;-68
2023/03/21 03:49:22;;;;;;;23.95;14.20;;;9.60;99.90;;;;;;5028488;28;20045;-68
2023/03/21 03:52:00;;;;;;;24.80;14.48;;;9.60;99.90;;;;;;5028073;28;20199;-68
2023/03/21 03:54:38;;;;;;;23.02;13.80;;;9.60;99.90;;;;;;5028087;28;20493;-68
2023/03/21 03:57:05;;;;;;;21.42;13.27;;;9.60;99.90;;;;;;5028325;28;20448;-68
2023/03/21 03:59:34;;;;;;;24.67;14.63;;;9.60;99.90;;;;;;5026659;28;20049;-68
2023/03/21 04:02:00;;;;;;;22.55;13.55;;;9.60;99.90;;;;;;5026584;28;20132;-68
2023/03/21 04:04:27;;;;;;;22.40;14.13;;;9.60;99.90;;;;;;5028030;28;20143;-67
2023/03/21 04:06:53;;;;;;;26.80;14.63;;;9.60;99.90;;;;;;5026734;28;20049;-68
2023/03/21 04:09:18;;;;;;;20.55;13.10;;;9.60;99.90;;;;;;5026050;28;20045;-69
2023/03/21 04:11:44;;;;;;;23.33;14.35;;;9.60;99.90;;;;;;5027821;28;20045;-68
2023/03/21 04:14:09;;;;;;;23.90;13.95;;;9.60;99.90;;;;;;5028099;28;20049;-68
2023/03/21 04:16:35;;;;;;;23.88;14.50;;;9.60;99.90;;;;;;5026514;28;20045;-68
2023/03/21 04:19:01;;;;;;;23.60;14.10;;;9.60;99.90;;;;;;5026405;28;20128;-68
2023/03/21 04:21:27;;;;;;;22.20;13.63;;;9.60;99.90;;;;;;5026112;28;20131;-67
2023/03/21 04:23:54;;;;;;;25.52;13.95;;;9.60;99.90;;;;;;5026329;28;20525;-68
2023/03/21 04:26:21;;;;;;;24.20;14.70;;;9.60;99.90;;;;;;5027956;28;20052;-68
2023/03/21 04:28:47;;;;;;;24.48;14.57;;;9.60;99.90;;;;;;5027872;28;20048;-68
2023/03/21 04:31:13;;;;;;;25.17;13.93;;;9.60;99.90;;;;;;5027889;28;20045;-68
2023/03/21 04:33:39;;;;;;;26.42;15.55;;;9.60;99.90;;;;;;5026367;28;20510;-68
2023/03/21 04:36:08;;;;;;;24.85;16.10;;;9.50;99.90;;;;;;5026474;28;20053;-67
2023/03/21 04:38:35;;;;;;;27.40;15.70;;;9.50;99.90;;;;;;5027697;28;20045;-68
2023/03/21 04:41:01;;;;;;;27.35;16.30;;;9.60;99.90;;;;;;5026361;28;20749;-67
2023/03/21 04:43:28;;;;;;;27.02;16.02;;;9.60;99.90;;;;;;5026292;28;20052;-68
2023/03/21 04:45:54;;;;;;;27.23;16.95;;;9.60;99.90;;;;;;5026580;28;20425;-68
2023/03/21 04:48:23;;;;;;;28.80;16.38;;;9.60;99.90;;;;;;5026212;28;20135;-68
2023/03/21 04:50:50;;;;;;;31.45;16.33;;;9.50;99.90;;;;;;5026272;28;20114;-68
2023/03/21 04:53:16;;;;;;;33.20;18.23;;;9.50;99.90;;;;;;5026027;28;20053;-68
2023/03/21 04:55:42;;;;;;;31.10;16.85;;;9.50;99.90;;;;;;5029455;28;20099;-68
2023/03/21 04:58:07;;;;;;;29.30;15.95;;;9.50;99.90;;;;;;5030188;28;20045;-67
2023/03/21 05:00:37;;;;;;;32.08;17.58;;;9.50;99.90;;;;;;5031475;28;20045;-68
2023/03/21 05:03:07;;;;;;;31.17;17.35;;;9.50;99.90;;;;;;5031263;28;20041;-68
2023/03/21 05:05:34;;;;;;;31.05;17.45;;;9.60;99.90;;;;;;5029898;28;20057;-68
2023/03/21 05:08:00;;;;;;;33.95;19.05;;;9.50;99.90;;;;;;5029851;28;20093;-69
2023/03/21 05:10:26;;;;;;;33.78;18.95;;;9.50;99.90;;;;;;5031112;28;20081;-68
2023/03/21 05:12:51;;;;;;;38.25;19.15;;;9.50;99.90;;;;;;5029324;28;20075;-68
2023/03/21 05:15:17;;;;;;;36.30;19.75;;;9.50;99.90;;;;;;5031099;28;20045;-68
2023/03/21 05:17:43;;;;;;;35.67;18.55;;;9.50;99.90;;;;;;5029467;28;20466;-68
2023/03/21 05:20:10;;;;;;;39.80;19.80;;;9.50;99.90;;;;;;5031205;28;20044;-67
2023/03/21 05:22:39;;;;;;;37.90;20.58;;;9.50;99.90;;;;;;5030495;28;20044;-68
2023/03/21 05:25:07;;;;;;;36.83;20.13;;;9.60;99.90;;;;;;5029498;28;20034;-68
2023/03/21 05:27:33;;;;;;;37.40;18.25;;;9.60;99.90;;;;;;5030907;28;20049;-68
2023/03/21 05:30:01;;;;;;;35.53;19.08;;;9.60;99.90;;;;;;5031150;28;20042;-68
2023/03/21 05:32:27;;;;;;;33.08;18.70;;;9.60;99.90;;;;;;5030634;28;20064;-67
2023/03/21 05:34:52;;;;;;;35.35;19.00;;;9.60;99.90;;;;;;5031139;28;20053;-68
2023/03/21 05:37:18;;;;;;;36.65;18.80;;;9.50;99.90;;;;;;5031138;28;20447;-68
2023/03/21 05:39:44;;;;;;;32.47;19.08;;;9.50;99.90;;;;;;5029582;28;20037;-68
2023/03/21 05:42:10;;;;;;;33.05;18.58;;;9.50;99.90;;;;;;5030697;28;20049;-68
2023/03/21 05:44:36;;;;;;;32.92;18.15;;;9.50;99.90;;;;;;5029478;28;20045;-68
2023/03/21 05:47:04;;;;;;;36.10;19.10;;;9.50;99.90;;;;;;5030600;28;20040;-68
2023/03/21 05:49:30;;;;;;;32.83;18.55;;;9.50;99.90;;;;;;5030286;28;20102;-68
2023/03/21 05:51:56;;;;;;;32.85;19.60;;;9.50;99.90;;;;;;5028657;28;20045;-68
2023/03/21 05:54:21;;;;;;;33.63;17.42;;;9.50;99.90;;;;;;5030343;28;20073;-68
2023/03/21 05:56:47;;;;;;;34.95;18.35;;;9.50;99.90;;;;;;5030135;28;20523;-68
2023/03/21 05:59:13;;;;;;;34.90;17.25;;;9.50;99.90;;;;;;5028694;28;20056;-68
2023/03/21 06:01:38;;;;;;;30.58;17.27;;;9.50;99.90;;;;;;5030232;28;20045;-68
2023/03/21 06:04:04;;;;;;;34.03;18.83;;;9.50;99.90;;;;;;5030124;28;20037;-68
2023/03/21 06:06:30;;;;;;;35.75;19.50;;;9.50;99.90;;;;;;5028762;28;20612;-68
2023/03/21 06:08:55;;;;;;;34.00;19.08;;;9.50;99.90;;;;;;5028710;28;20163;-68
2023/03/21 06:11:28;;;;;;;33.30;17.70;;;9.50;99.90;;;;;;5027916;28;20059;-68
2023/03/21 06:13:54;;;;;;;33.35;18.00;;;9.50;99.90;;;;;;5030146;28;20048;-69
2023/03/21 06:16:19;;;;;;;32.17;17.27;;;9.50;99.90;;;;;;5030297;28;20057;-68
2023/03/21 06:18:45;;;;;;;28.65;17.67;;;9.50;99.90;;;;;;5030148;28;20049;-68
2023/03/21 06:21:11;;;;;;;32.25;17.70;;;9.50;99.90;;;;;;5029573;28;20481;-68
2023/03/21 06:23:36;;;;;;;31.48;18.17;;;9.60;99.90;;;;;;5028396;28;20616;-68
2023/03/21 06:26:03;;;;;;;29.35;17.50;;;9.50;99.90;;;;;;5030032;28;20048;-68
2023/03/21 06:28:28;;;;;;;29.77;17.02;;;9.50;99.90;;;;;;5029674;28;20492;-67
2023/03/21 06:30:54;;;;;;;32.10;17.92;;;9.60;99.90;;;;;;5029626;28;20048;-68
2023/03/21 06:33:20;;;;;;;29.95;17.08;;;9.60;99.90;;;;;;5029217;28;20132;-67
2023/03/21 06:35:54;;;;;;;29.00;16.42;;;9.50;99.90;;;;;;5029351;28;20056;-67
2023/03/21 06:38:20;;;;;;;31.20;16.10;;;9.50;99.90;;;;;;5027941;28;20050;-67
2023/03/21 06:40:46;;;;;;;29.55;15.00;;;9.60;99.90;;;;;;5029480;28;20045;-67
2023/03/21 06:43:12;;;;;;;27.60;16.00;;;9.60;99.90;;;;;;5027657;28;20530;-67
2023/03/21 06:45:38;;;;;;;24.27;14.45;;;9.50;99.90;;;;;;5029540;28;20068;-67
2023/03/21 06:48:04;;;;;;;24.35;13.77;;;9.60;99.90;;;;;;5028038;28;20041;-67
2023/03/21 06:50:30;;;;;;;23.50;13.63;;;9.60;99.90;;;;;;5029395;28;20052;-67
2023/03/21 06:52:58;;;;;;;25.27;13.65;;;9.60;99.90;;;;;;5028623;28;20052;-67
2023/03/21 06:55:25;;;;;;;27.83;13.70;;;9.60;99.90;;;;;;5027803;28;20045;-67
2023/03/21 06:57:52;;;;;;;23.02;12.35;;;9.60;99.90;;;;;;5029064;28;20465;-70
2023/03/21 07:00:19;;;;;;;22.60;12.63;;;9.60;99.90;;;;;;5027871;28;20042;-68
2023/03/21 07:02:45;;;;;;;24.52;12.60;;;9.60;99.90;;;;;;5028998;28;20041;-68
2023/03/21 07:05:11;;;;;;;22.05;12.25;;;9.60;99.90;;;;;;5028981;28;20064;-68
2023/03/21 07:07:38;;;;;;;22.35;12.00;;;9.60;99.90;;;;;;5029291;28;20048;-67
2023/03/21 07:10:04;;;;;;;19.40;11.75;;;9.70;99.90;;;;;;5028483;28;20440;-68
2023/03/21 07:12:32;;;;;;;21.20;11.95;;;9.70;99.90;;;;;;5027342;28;20049;-68
2023/03/21 07:14:59;;;;;;;22.95;12.25;;;9.70;99.90;;;;;;5027568;28;20088;-68
2023/03/21 07:17:25;;;;;;;23.60;12.30;;;9.60;99.90;;;;;;5010107;28;20049;-68
2023/03/21 07:19:51;;;;;;;20.83;12.30;;;9.60;99.90;;;;;;5028858;28;20033;-68
2023/03/21 07:22:17;;;;;;;23.33;12.25;;;9.70;99.90;;;;;;5028336;28;20041;-68
2023/03/21 07:24:43;;;;;;;21.98;12.57;;;9.60;99.90;;;;;;5028579;28;20045;-68
2023/03/21 07:27:08;;;;;;;23.05;12.75;;;9.60;99.90;;;;;;5028653;28;20045;-68
2023/03/21 07:29:34;;;;;;;22.00;12.77;;;9.60;99.90;;;;;;5028571;28;20051;-68
2023/03/21 07:32:00;;;;;;;22.05;11.75;;;9.60;99.90;;;;;;5027416;28;20067;-68
2023/03/21 07:34:30;;;;;;;26.45;12.10;;;9.60;99.90;;;;;;5029285;28;20490;-68
2023/03/21 07:36:56;;;;;;;20.15;11.93;;;9.60;99.90;;;;;;5029152;28;20045;-68
2023/03/21 07:39:22;;;;;;;27.30;13.75;;;9.60;99.90;;;;;;5028909;28;20042;-68
2023/03/21 07:41:48;;;;;;;19.90;13.02;;;9.60;99.90;;;;;;5028487;28;20030;-67
2023/03/21 07:44:14;;;;;;;21.98;12.23;;;9.60;99.90;;;;;;5028726;28;20037;-68
2023/03/21 07:46:40;;;;;;;25.13;13.52;;;9.60;99.90;;;;;;5027357;28;20517;-68
2023/03/21 07:49:07;;;;;;;19.52;12.23;;;9.60;99.90;;;;;;5027338;28;20057;-67
2023/03/21 07:51:34;;;;;;;24.10;12.68;;;9.60;99.90;;;;;;5026739;28;20132;-70
2023/03/21 07:54:00;;;;;;;21.45;11.88;;;9.60;99.90;;;;;;5028336;28;20128;-71
2023/03/21 07:56:29;;;;;;;19.17;11.38;;;9.50;99.90;;;;;;5010423;28;20049;-69
2023/03/21 07:58:55;;;;;;;23.70;12.13;;;9.60;99.90;;;;;;5028325;28;20042;-72
2023/03/21 08:01:21;;;;;;;24.40;12.95;;;9.60;99.90;;;;;;5026531;28;20041;-72
2023/03/21 08:03:46;;;;;;;19.55;12.70;;;9.60;99.90;;;;;;5026832;28;20038;-72
2023/03/21 08:06:14;;;;;;;22.23;11.20;;;9.60;99.90;;;;;;5026666;28;20072;-72
2023/03/21 08:08:40;;;;;;;22.48;11.40;;;9.60;99.90;;;;;;5026633;28;20053;-72
2023/03/21 08:11:06;;;;;;;17.67;11.20;;;9.50;99.90;;;;;;5027643;28;20056;-72
2023/03/21 08:13:32;;;;;;;20.25;12.60;;;9.60;99.90;;;;;;5028034;28;20045;-72
2023/03/21 08:15:58;;;;;;;20.52;11.95;;;9.60;99.90;;;;;;5028098;28;20049;-73
2023/03/21 08:18:24;;;;;;;19.55;12.35;;;9.70;99.90;;;;;;5026515;28;20049;-72
2023/03/21 08:20:55;;;;;;;22.50;12.68;;;9.60;99.90;;;;;;5027919;28;20049;-72
2023/03/21 08:23:21;;;;;;;21.00;11.30;;;9.60;99.90;;;;;;5026163;28;20091;-72
2023/03/21 08:25:53;;;;;;;21.00;12.52;;;9.70;99.90;;;;;;5027880;28;20429;-73
2023/03/21 08:28:20;;;;;;;22.27;12.07;;;9.70;99.90;;;;;;5028642;28;20049;-72
2023/03/21 08:30:46;;;;;;;21.88;11.80;;;9.70;99.90;;;;;;5030757;28;20050;-72
2023/03/21 08:33:12;;;;;;;20.38;11.57;;;9.60;99.90;;;;;;5031499;28;20033;-72
2023/03/21 08:35:38;;;;;;;20.92;11.50;;;9.60;99.90;;;;;;5030323;28;20060;-72
2023/03/21 08:38:05;;;;;;;18.75;11.57;;;9.60;99.90;;;;;;5031717;28;20050;-71
2023/03/21 08:40:31;;;;;;;21.35;10.40;;;9.60;99.90;;;;;;5031699;28;20044;-71
2023/03/21 08:42:57;;;;;;;22.45;12.32;;;9.70;99.90;;;;;;5030105;28;20516;-72
2023/03/21 08:45:24;;;;;;;26.05;11.82;;;9.70;99.90;;;;;;5031843;28;20041;-73
2023/03/21 08:47:50;;;;;;;23.17;12.45;;;9.70;99.90;;;;;;5030447;28;20045;-72
2023/03/21 08:50:19;;;;;;;22.63;12.13;;;9.70;99.90;;;;;;5031493;28;20119;-71
2023/03/21 08:52:45;;;;;;;27.63;12.30;;;9.70;99.90;;;;;;5029818;28;20132;-73
2023/03/21 08:55:11;;;;;;;27.67;13.80;;;9.70;99.90;;;;;;5030691;28;20456;-71
2023/03/21 08:57:37;;;;;;;21.08;11.93;;;9.70;99.90;;;;;;5030230;28;20083;-70
2023/03/21 09:00:16;;;;;;;22.05;11.35;;;9.70;99.90;;;;;;5031352;28;20033;-71
2023/03/21 09:02:43;;;;;;;29.58;13.27;;;9.80;99.90;;;;;;5031055;28;20472;-73
2023/03/21 09:05:10;;;;;;;23.02;11.45;;;9.80;99.90;;;;;;5013616;28;20485;-71
2023/03/21 09:07:38;;;;;;;26.88;12.30;;;9.80;99.90;;;;;;5029832;28;20050;-71
2023/03/21 09:10:05;;;;;;;22.77;11.88;;;9.80;99.90;;;;;;5012797;28;20087;-71
2023/03/21 09:12:32;;;;;;;25.70;12.63;;;9.80;99.90;;;;;;5013167;28;20087;-71
2023/03/21 09:14:58;;;;;;;22.75;12.80;;;9.80;99.90;;;;;;5029742;28;20048;-71
2023/03/21 09:17:23;;;;;;;23.48;11.73;;;9.80;99.90;;;;;;5012999;28;20041;-71
2023/03/21 09:19:49;;;;;;;25.23;12.38;;;9.80;99.90;;;;;;5029608;28;20045;-71
2023/03/21 09:22:20;;;;;;;21.05;11.57;;;9.80;99.90;;;;;;5030798;28;20445;-72
2023/03/21 09:24:48;;;;;;;29.17;14.00;;;9.80;99.90;;;;;;5031002;28;20113;-72
2023/03/21 09:27:18;;;;;;;22.10;11.45;;;9.80;99.90;;;;;;5030884;28;20132;-72
2023/03/21 09:29:43;;;;;;;35.58;15.32;;;9.80;99.90;;;;;;5014031;28;20041;-72
2023/03/21 09:32:11;;;;;;;25.65;12.63;;;9.80;99.90;;;;;;5013409;28;20037;-72
2023/03/21 09:34:39;;;;;;;26.95;12.50;;;9.90;99.90;;;;;;5029474;28;20055;-72
2023/03/21 09:37:12;;;;;;;27.77;12.88;;;9.90;99.90;;;;;;5030676;28;20410;-72
2023/03/21 09:39:39;;;;;;;24.90;12.23;;;10.00;99.90;;;;;;5029006;28;20045;-72
2023/03/21 09:42:33;;;;;;;25.38;12.25;;;9.90;99.90;;;;;;5029910;28;20041;-71
2023/03/21 09:45:37;;;;;;;26.40;11.82;;;9.90;99.90;;;;;;5029273;28;20406;-73
2023/03/21 09:48:06;;;;;;;26.30;13.20;;;10.00;99.90;;;;;;5029269;28;20123;-72
2023/03/21 09:50:35;;;;;;;23.02;13.02;;;10.00;99.90;;;;;;5029447;28;20037;-71
2023/03/21 09:53:11;;;;;;;25.40;12.35;;;10.10;99.90;;;;;;5028995;28;20077;-71
2023/03/21 09:55:39;;;;;;;23.48;11.60;;;10.00;99.90;;;;;;5030886;28;20476;-73
2023/03/21 09:58:37;;;;;;;25.80;12.85;;;10.00;99.90;;;;;;5029100;28;20132;-74
2023/03/21 10:01:31;;;;;;;27.63;12.40;;;10.00;99.90;;;;;;5028976;28;20041;-72
2023/03/21 10:04:05;;;;;;;23.23;12.57;;;10.00;99.90;;;;;;5012783;28;20056;-73
2023/03/21 10:06:33;;;;;;;23.67;11.68;;;10.10;99.90;;;;;;5030476;28;20045;-70
2023/03/21 10:09:06;;;;;;;26.88;12.90;;;10.20;99.90;;;;;;5028228;28;20094;-72
2023/03/21 10:11:45;;;;;;;26.10;12.70;;;10.20;99.90;;;;;;5028449;28;20048;-72
2023/03/21 10:14:33;;;;;;;23.40;12.43;;;10.20;99.90;;;;;;5028483;28;20103;-68
2023/03/21 10:17:27;;;;;;;26.55;13.02;;;10.20;99.90;;;;;;5030193;28;20045;-69
2023/03/21 10:20:19;;;;;;;28.58;12.00;;;10.20;99.90;;;;;;5030199;28;20057;-69
2023/03/21 10:22:48;;;;;;;24.75;11.68;;;10.20;99.90;;;;;;5029472;28;20050;-69
2023/03/21 10:25:21;;;;;;;24.23;12.00;;;10.20;99.90;;;;;;5028373;28;20052;-69
2023/03/21 10:27:49;;;;;;;25.55;12.50;;;10.20;99.90;;;;;;5029806;28;20053;-69
2023/03/21 10:30:38;;;;;;;21.20;11.60;;;10.20;99.90;;;;;;5028254;28;20513;-69
2023/03/21 10:33:08;;;;;;;22.85;12.10;;;10.20;99.90;;;;;;5029321;28;20046;-69
2023/03/21 10:35:36;;;;;;;22.65;12.30;;;10.20;99.90;;;;;;5028526;28;20045;-69
2023/03/21 10:38:04;;;;;;;19.65;11.85;;;10.20;99.90;;;;;;5027966;28;20053;-69
2023/03/21 10:40:30;;;;;;;21.27;11.40;;;10.30;99.90;;;;;;5028052;28;20053;-69
2023/03/21 10:42:56;;;;;;;26.52;13.73;;;10.30;99.90;;;;;;5029078;28;20044;-69
2023/03/21 10:45:23;;;;;;;23.90;11.95;;;10.30;99.90;;;;;;5027885;28;20080;-69
2023/03/21 10:47:50;;;;;;;23.42;12.52;;;10.30;99.90;;;;;;5029633;28;20045;-69
2023/03/21 10:50:25;;;;;;;28.20;12.18;;;10.20;99.90;;;;;;5028147;28;20088;-69
2023/03/21 10:52:59;;;;;;;24.13;12.95;;;10.30;99.90;;;;;;5026779;28;20088;-70
2023/03/21 10:55:31;;;;;;;24.25;12.32;;;10.30;99.90;;;;;;5011486;28;20049;-69
2023/03/21 10:58:07;;;;;;;26.40;11.35;;;10.30;99.90;;;;;;5025772;28;20148;-71
2023/03/21 11:00:43;;;;;;;24.92;12.48;;;10.30;99.90;;;;;;5043704;28;20060;-71
2023/03/21 11:03:22;;;;;;;23.38;12.88;;;10.30;99.90;;;;;;5047111;28;20075;-72
2023/03/21 11:05:52;;;;;;;23.63;12.98;;;10.30;99.90;;;;;;5047197;28;20045;-71
2023/03/21 11:08:18;;;;;;;21.63;11.73;;;10.30;99.90;;;;;;5047228;28;20094;-72
2023/03/21 11:11:06;;;;;;;21.95;12.75;;;10.30;99.90;;;;;;5048552;28;20044;-73
2023/03/21 11:13:41;;;;;;;24.55;12.50;;;10.40;99.90;;;;;;5085285;27;20823;-73
2023/03/21 11:16:23;;;;;;;20.42;11.60;;;10.40;99.90;;;;;;5085371;28;20084;-71
2023/03/21 11:18:50;;;;;;;31.05;12.35;;;10.40;99.90;;;;;;5085222;28;20036;-72
2023/03/21 11:21:16;;;;;;;22.05;10.70;;;10.50;99.90;;;;;;5085058;28;20094;-72
2023/03/21 11:23:48;;;;;;;20.08;11.80;;;10.50;99.90;;;;;;5083763;28;20064;-71
2023/03/21 11:26:27;;;;;;;19.92;11.07;;;10.60;99.90;;;;;;5083819;28;20041;-71
2023/03/21 11:28:53;;;;;;;19.45;10.18;;;10.70;99.90;;;;;;5084859;28;20404;-72
2023/03/21 11:31:20;;;;;;;22.48;10.27;;;10.70;99.90;;;;;;5083395;28;20055;-71
2023/03/21 11:33:55;;;;;;;19.10;9.88;;;10.70;99.90;;;;;;5083483;28;20037;-70
2023/03/21 11:36:21;;;;;;;19.35;9.63;;;10.80;99.90;;;;;;5083979;28;20052;-70
2023/03/21 11:39:00;;;;;;;15.27;8.80;;;10.80;99.90;;;;;;5067052;28;20150;-71
2023/03/21 11:41:34;;;;;;;18.65;10.10;;;10.90;99.90;;;;;;5083712;28;20082;-71
2023/03/21 11:44:01;;;;;;;19.52;8.25;;;10.90;99.90;;;;;;5085269;28;20043;-72
2023/03/21 11:46:30;;;;;;;15.90;7.75;;;10.90;99.90;;;;;;5083942;28;20400;-71
2023/03/21 11:48:57;;;;;;;19.90;8.98;;;11.00;99.90;;;;;;5084892;28;20496;-71
2023/03/21 11:51:44;;;;;;;18.67;7.93;;;11.00;99.90;;;;;;5084481;28;20058;-71
2023/03/21 11:54:35;;;;;;;16.23;7.60;;;11.10;99.90;;;;;;5083701;28;20046;-71
2023/03/21 11:57:21;;;;;;;13.48;7.28;;;11.10;99.90;;;;;;5084766;28;20044;-71
2023/03/21 12:00:21;;;;;;;16.70;7.45;;;11.10;99.90;;;;;;5083442;28;20067;-71
2023/03/21 12:03:15;;;;;;;19.67;8.18;;;11.10;99.90;;;;;;5083188;28;20052;-71
2023/03/21 12:06:00;;;;;;;15.93;7.70;;;11.10;99.90;;;;;;5084827;28;20133;-71
2023/03/21 12:08:50;;;;;;;17.73;7.60;;;11.20;99.90;;;;;;5083120;28;20048;-71
2023/03/21 12:11:24;;;;;;;12.13;7.35;;;11.20;99.90;;;;;;5082549;28;20040;-72
2023/03/21 12:14:11;;;;;;;13.00;8.05;;;11.20;99.90;;;;;;5082894;28;20040;-73
2023/03/21 12:16:42;;;;;;;16.75;8.10;;;11.30;99.90;;;;;;5083070;28;20062;-71
2023/03/21 12:19:30;;;;;;;14.18;7.50;;;11.30;99.90;;;;;;5082864;28;20044;-69
2023/03/21 12:22:11;;;;;;;15.43;7.93;;;11.40;99.90;;;;;;5082213;28;20127;-71
2023/03/21 12:24:43;;;;;;;17.25;7.53;;;11.50;99.90;;;;;;5071533;28;20154;-70
2023/03/21 12:27:15;;;;;;;13.05;7.25;;;11.50;99.90;;;;;;5069570;28;20044;-70
2023/03/21 12:29:59;;;;;;;15.57;7.37;;;11.50;99.90;;;;;;5069407;28;20071;-71
2023/03/21 12:32:31;;;;;;;13.98;6.95;;;11.50;99.90;;;;;;5068750;28;20040;-70
2023/03/21 12:35:20;;;;;;;15.15;8.07;;;11.60;99.90;;;;;;5069377;28;20044;-70
2023/03/21 12:38:04;;;;;;;12.35;6.68;;;11.60;99.90;;;;;;5052586;28;20051;-71
2023/03/21 12:40:47;;;;;;;16.52;7.50;;;11.70;99.90;;;;;;5069198;28;20044;-70
2023/03/21 12:43:40;;;;;;;14.65;6.50;;;11.60;99.90;;;;;;5068689;28;20040;-68
2023/03/21 12:46:17;;;;;;;14.13;7.13;;;11.70;99.90;;;;;;5065000;28;20068;-68
2023/03/21 12:48:49;;;;;;;16.50;6.68;;;11.60;99.90;;;;;;5060632;28;20045;-68
2023/03/21 12:51:19;;;;;;;15.55;6.63;;;11.60;99.90;;;;;;5042554;28;20097;-68
2023/03/21 12:53:47;;;;;;;11.20;6.38;;;11.50;99.90;;;;;;5057272;28;20924;-68
2023/03/21 12:56:19;;;;;;;13.70;7.03;;;11.50;99.90;;;;;;5059905;28;20393;-68